Time;durP1;ratioP1;P1;durP2;ratioP2;P2;SDS_P1;SDS_P2;PMS_P1;PMS_P2;Temp;Humidity;BMP_temperature;BMP_pressure;BME280_temperature;BME280_humidity;BME280_pressure;Samples;Min_cycle;Max_cycle;Signal;HPM_P1;HPM_P2
2020/12/12 00:02:18;;;;;;;22.90;19.57;;;;;;;1.16;88.02;98444.50;5051790;28;20446;-76
2020/12/12 00:04:44;;;;;;;22.27;19.97;;;;;;;1.15;88.23;98456.31;5051380;28;20418;-76
2020/12/12 00:07:09;;;;;;;22.57;20.23;;;;;;;1.14;88.40;98452.84;5051853;28;20183;-76
2020/12/12 00:09:36;;;;;;;24.20;21.43;;;;;;;1.14;88.08;98454.72;5051824;28;20650;-75
2020/12/12 00:12:02;;;;;;;22.63;20.20;;;;;;;1.23;87.92;98441.41;5051888;28;20228;-76
2020/12/12 00:14:27;;;;;;;21.53;19.30;;;;;;;1.28;87.64;98447.47;5051681;28;20504;-75
2020/12/12 00:16:53;;;;;;;25.33;19.67;;;;;;;1.27;87.61;98445.06;5051503;28;21032;-75
2020/12/12 00:19:19;;;;;;;24.10;19.90;;;;;;;1.37;87.52;98436.81;5051545;28;20187;-76
2020/12/12 00:21:50;;;;;;;20.37;18.17;;;;;;;1.46;87.26;98441.19;5051735;28;20468;-76
2020/12/12 00:24:15;;;;;;;20.00;18.00;;;;;;;1.52;86.91;98441.88;5051357;28;20179;-75
2020/12/12 00:26:41;;;;;;;19.97;17.73;;;;;;;1.54;86.50;98439.69;5051275;28;20179;-76
2020/12/12 00:29:06;;;;;;;19.93;18.13;;;;;;;1.49;86.58;98429.81;5050051;28;20316;-75
2020/12/12 00:31:32;;;;;;;20.83;18.80;;;;;;;1.53;86.53;98435.41;5051417;28;20183;-76
2020/12/12 00:33:57;;;;;;;20.73;18.63;;;;;;;1.42;86.58;98434.81;5051084;28;20642;-75
2020/12/12 00:36:22;;;;;;;23.67;19.40;;;;;;;1.43;86.74;98433.69;5051082;28;20177;-76
2020/12/12 00:38:47;;;;;;;21.53;19.47;;;;;;;1.26;87.31;98425.44;5051128;28;20171;-76
2020/12/12 00:41:13;;;;;;;23.13;19.80;;;;;;;1.22;87.74;98432.53;5051203;28;20194;-76
2020/12/12 00:43:38;;;;;;;23.80;19.67;;;;;;;1.18;88.00;98431.56;5051139;28;20194;-75
2020/12/12 00:46:04;;;;;;;26.53;20.33;;;;;;;1.18;88.22;98429.66;5050957;28;20186;-75
2020/12/12 00:48:29;;;;;;;22.93;19.50;;;;;;;1.18;87.96;98432.34;5050866;28;20207;-75
2020/12/12 00:50:54;;;;;;;21.30;19.10;;;;;;;1.18;88.27;98436.94;5050996;28;20179;-75
2020/12/12 00:53:20;;;;;;;22.73;19.60;;;;;;;1.31;87.73;98441.50;5050983;28;20258;-75
2020/12/12 00:55:45;;;;;;;20.80;18.47;;;;;;;1.23;87.85;98430.66;5051050;28;20591;-75
2020/12/12 00:58:11;;;;;;;22.10;19.57;;;;;;;1.28;87.88;98436.72;5049492;28;20270;-75
2020/12/12 01:00:36;;;;;;;25.53;20.20;;;;;;;1.37;87.85;98439.50;5050871;28;20183;-76
2020/12/12 01:03:03;;;;;;;20.20;18.07;;;;;;;1.44;87.67;98439.88;5049466;28;20178;-75
2020/12/12 01:05:29;;;;;;;23.50;18.73;;;;;;;1.43;88.06;98441.78;5050775;28;20234;-75
2020/12/12 01:07:54;;;;;;;23.30;19.87;;;;;;;1.53;88.39;98438.09;5050518;28;20489;-75
2020/12/12 01:10:20;;;;;;;22.50;20.10;;;;;;;1.52;88.20;98433.81;5050761;28;20171;-75
2020/12/12 01:12:45;;;;;;;22.97;20.70;;;;;;;1.49;88.30;98437.09;5050676;28;20182;-76
2020/12/12 01:15:10;;;;;;;23.47;19.60;;;;;;;1.45;88.51;98442.28;5049042;28;20172;-75
2020/12/12 01:17:36;;;;;;;25.00;20.33;;;;;;;1.55;88.24;98446.66;5050390;28;20175;-75
2020/12/12 01:20:02;;;;;;;27.03;20.17;;;;;;;1.49;88.44;98439.78;5050905;28;20182;-76
2020/12/12 01:22:27;;;;;;;21.80;19.50;;;;;;;1.48;88.61;98440.91;5050921;28;20174;-76
2020/12/12 01:24:53;;;;;;;25.40;21.70;;;;;;;1.51;89.01;98444.88;5050829;28;20429;-75
2020/12/12 01:27:18;;;;;;;21.97;19.70;;;;;;;1.52;89.24;98449.16;5050578;28;20655;-76
2020/12/12 01:29:43;;;;;;;44.93;20.53;;;;;;;1.46;89.71;98441.19;5050683;28;20209;-76
2020/12/12 01:32:09;;;;;;;25.87;21.23;;;;;;;1.43;90.13;98449.06;5050573;28;20172;-76
2020/12/12 01:34:34;;;;;;;22.40;20.00;;;;;;;1.58;89.99;98439.88;5049273;28;20218;-76
2020/12/12 01:37:00;;;;;;;26.57;21.73;;;;;;;1.48;90.58;98448.97;5050456;28;20254;-76
2020/12/12 01:39:25;;;;;;;25.20;21.43;;;;;;;1.41;90.76;98449.34;5050692;28;20343;-76
2020/12/12 01:41:54;;;;;;;29.50;21.77;;;;;;;1.45;91.00;98452.25;5050483;28;20171;-75
2020/12/12 01:44:20;;;;;;;27.33;21.47;;;;;;;1.44;91.46;98442.56;5050358;28;20180;-76
2020/12/12 01:46:47;;;;;;;28.10;23.43;;;;;;;1.43;91.33;98441.78;5048984;28;20463;-75
2020/12/12 01:49:13;;;;;;;27.93;22.87;;;;;;;1.41;91.65;98443.97;5048939;28;20269;-76
2020/12/12 01:51:39;;;;;;;26.67;21.67;;;;;;;1.44;91.62;98448.75;5050020;28;20457;-76
2020/12/12 01:54:05;;;;;;;30.03;22.27;;;;;;;1.40;91.83;98455.03;5049017;28;20241;-75
2020/12/12 01:56:31;;;;;;;34.73;24.07;;;;;;;1.35;92.12;98449.78;5050188;28;20186;-75
2020/12/12 01:58:56;;;;;;;37.67;25.63;;;;;;;1.28;92.35;98452.06;5050209;28;20417;-76
2020/12/12 02:01:23;;;;;;;32.37;23.83;;;;;;;1.24;92.74;98453.75;5050306;28;20179;-75
2020/12/12 02:03:50;;;;;;;30.90;23.97;;;;;;;1.26;92.38;98455.03;5050029;28;20183;-76
2020/12/12 02:06:19;;;;;;;32.80;23.67;;;;;;;1.26;92.82;98454.25;5050070;28;20418;-75
2020/12/12 02:08:45;;;;;;;32.97;24.07;;;;;;;1.27;92.78;98458.53;5050226;28;20473;-76
2020/12/12 02:11:12;;;;;;;34.23;23.67;;;;;;;1.25;92.89;98445.38;5050197;28;20414;-76
2020/12/12 02:13:47;;;;;;;37.50;24.17;;;;;;;1.28;92.83;98450.16;5050262;28;20413;-76
2020/12/12 02:16:16;;;;;;;31.33;23.43;;;;;;;1.29;92.63;98446.38;5050169;28;20425;-75
2020/12/12 02:18:42;;;;;;;34.00;24.90;;;;;;;1.30;92.86;98457.91;5048724;28;20418;-76
2020/12/12 02:21:08;;;;;;;33.23;24.37;;;;;;;1.27;92.76;98455.84;5050272;28;20800;-76
2020/12/12 02:23:34;;;;;;;35.27;25.30;;;;;;;1.30;93.04;98449.84;5050028;28;20167;-75
2020/12/12 02:25:59;;;;;;;31.57;22.97;;;;;;;1.32;92.96;98450.38;5050089;28;20172;-75
2020/12/12 02:28:29;;;;;;;33.90;25.30;;;;;;;1.33;92.86;98455.44;5051852;28;20202;-75
2020/12/12 02:31:33;;;;;;;34.53;24.00;;;;;;;1.34;92.87;98453.56;5054342;28;20217;-76
2020/12/12 02:33:59;;;;;;;34.60;24.73;;;;;;;1.35;92.67;98455.16;5063294;28;20409;-75
2020/12/12 02:36:24;;;;;;;34.60;24.60;;;;;;;1.38;92.77;98455.34;5054796;28;20493;-75
2020/12/12 02:38:49;;;;;;;35.00;24.30;;;;;;;1.34;93.38;98453.56;5053580;28;20258;-75
2020/12/12 02:41:15;;;;;;;37.23;25.20;;;;;;;1.29;93.29;98445.56;5053563;28;20221;-75
2020/12/12 02:43:40;;;;;;;45.77;27.50;;;;;;;1.20;94.19;98445.50;5053671;28;20163;-75
2020/12/12 02:46:05;;;;;;;42.53;28.43;;;;;;;1.22;94.05;98456.75;5051906;28;20182;-76
2020/12/12 02:48:31;;;;;;;42.17;26.73;;;;;;;1.21;94.09;98446.28;5053237;28;20199;-76
2020/12/12 02:50:56;;;;;;;46.20;28.23;;;;;;;1.19;94.23;98447.38;5053227;28;20167;-75
2020/12/12 02:53:21;;;;;;;42.27;26.47;;;;;;;1.19;94.46;98451.97;5053352;28;20317;-76
2020/12/12 02:55:47;;;;;;;44.70;28.13;;;;;;;1.21;94.77;98451.66;5053520;28;20167;-75
2020/12/12 02:58:12;;;;;;;47.87;28.50;;;;;;;1.20;94.71;98453.56;5053067;28;20231;-76
2020/12/12 03:00:37;;;;;;;43.87;27.80;;;;;;;1.24;95.16;98451.06;5053088;28;20576;-75
2020/12/12 03:03:03;;;;;;;48.87;29.40;;;;;;;1.21;94.84;98454.34;5051852;28;20182;-75
2020/12/12 03:05:28;;;;;;;45.80;27.67;;;;;;;1.25;95.13;98450.75;5051665;28;20182;-75
2020/12/12 03:07:53;;;;;;;48.20;28.47;;;;;;;1.24;94.95;98451.06;5053146;28;20234;-75
2020/12/12 03:10:19;;;;;;;40.50;27.43;;;;;;;1.31;94.92;98446.88;5053016;28;20207;-76
2020/12/12 03:12:44;;;;;;;45.17;29.77;;;;;;;1.25;95.12;98441.91;5052793;28;20262;-75
2020/12/12 03:15:10;;;;;;;49.47;29.50;;;;;;;1.27;95.13;98445.06;5052781;28;20229;-75
2020/12/12 03:17:36;;;;;;;41.83;27.57;;;;;;;1.28;95.33;98443.97;5052574;28;20171;-76
2020/12/12 03:20:04;;;;;;;42.30;27.37;;;;;;;1.36;94.82;98444.09;5052658;28;20409;-76
2020/12/12 03:22:30;;;;;;;41.33;27.97;;;;;;;1.35;95.06;98447.09;5052648;28;20935;-75
2020/12/12 03:24:55;;;;;;;50.60;28.40;;;;;;;1.36;94.75;98448.66;5052614;28;20414;-75
2020/12/12 03:27:20;;;;;;;40.37;26.60;;;;;;;1.39;95.02;98454.25;5052786;28;20708;-75
2020/12/12 03:29:46;;;;;;;41.87;26.37;;;;;;;1.39;94.84;98450.75;5052537;28;20689;-75
2020/12/12 03:32:11;;;;;;;39.77;26.13;;;;;;;1.40;94.64;98450.44;5052401;28;20168;-75
2020/12/12 03:34:38;;;;;;;34.37;24.53;;;;;;;1.44;94.23;98456.03;5052466;28;20593;-75
2020/12/12 03:37:04;;;;;;;40.37;25.70;;;;;;;1.55;94.32;98451.25;5052314;28;20190;-75
2020/12/12 03:39:30;;;;;;;33.80;24.47;;;;;;;1.54;94.11;98457.72;5052000;28;20784;-75
2020/12/12 03:41:55;;;;;;;39.80;25.70;;;;;;;1.52;94.28;98459.91;5052354;28;20418;-75
2020/12/12 03:44:20;;;;;;;35.00;24.97;;;;;;;1.65;93.98;98456.41;5052210;28;20167;-75
2020/12/12 03:46:46;;;;;;;27.27;23.17;;;;;;;1.74;93.73;98463.47;5052001;28;20184;-75
2020/12/12 03:49:11;;;;;;;31.87;24.73;;;;;;;1.72;93.31;98457.59;5051983;28;20199;-76
2020/12/12 03:51:37;;;;;;;32.63;25.03;;;;;;;1.77;92.90;98459.38;5051303;28;20172;-75
2020/12/12 03:54:02;;;;;;;30.03;24.43;;;;;;;1.79;93.06;98457.97;5050570;28;20638;-75
2020/12/12 03:56:28;;;;;;;41.00;25.70;;;;;;;1.69;93.04;98463.56;5051884;28;20544;-75
2020/12/12 03:58:53;;;;;;;34.97;25.17;;;;;;;1.71;92.96;98464.06;5051895;28;20171;-75
2020/12/12 04:01:18;;;;;;;35.23;23.50;;;;;;;1.76;92.93;98465.88;5051897;28;20171;-76
2020/12/12 04:03:44;;;;;;;39.07;25.67;;;;;;;1.69;93.15;98466.25;5051967;28;20178;-75
2020/12/12 04:06:09;;;;;;;37.93;25.53;;;;;;;1.64;93.11;98463.69;5051761;28;20175;-75
2020/12/12 04:08:34;;;;;;;37.77;24.87;;;;;;;1.61;93.51;98467.00;5051658;28;20205;-75
2020/12/12 04:11:01;;;;;;;32.73;23.17;;;;;;;1.78;93.37;98461.78;5051571;28;20179;-75
2020/12/12 04:13:27;;;;;;;33.33;24.13;;;;;;;1.79;93.13;98467.97;5051645;28;20778;-75
2020/12/12 04:15:52;;;;;;;34.90;25.33;;;;;;;1.84;92.72;98467.84;5051607;28;20433;-75
2020/12/12 04:18:17;;;;;;;33.03;23.23;;;;;;;1.81;92.58;98475.72;5051617;28;20532;-75
2020/12/12 04:20:43;;;;;;;31.87;23.67;;;;;;;1.86;92.78;98468.31;5051588;28;20618;-75
2020/12/12 04:23:08;;;;;;;26.17;22.83;;;;;;;1.94;92.60;98464.94;5051562;28;20171;-75
2020/12/12 04:25:33;;;;;;;31.33;23.77;;;;;;;1.89;92.50;98466.94;5051316;28;20171;-75
2020/12/12 04:27:59;;;;;;;34.43;24.53;;;;;;;1.80;92.64;98461.47;5051120;28;20272;-75
2020/12/12 04:30:24;;;;;;;33.17;24.17;;;;;;;1.76;93.05;98463.19;5051314;28;20696;-75
2020/12/12 04:32:49;;;;;;;36.47;25.03;;;;;;;1.71;93.19;98471.34;5051396;28;20191;-75
2020/12/12 04:35:15;;;;;;;32.03;24.97;;;;;;;1.68;93.55;98472.75;5051280;28;20250;-75
2020/12/12 04:37:40;;;;;;;36.53;26.37;;;;;;;1.73;93.57;98477.22;5051121;28;20270;-75
2020/12/12 04:40:09;;;;;;;34.33;25.70;;;;;;;1.75;93.18;98475.84;5051109;28;20243;-75
2020/12/12 04:42:35;;;;;;;36.37;25.47;;;;;;;1.79;93.37;98476.81;5051767;28;20250;-75
2020/12/12 04:45:02;;;;;;;37.07;25.97;;;;;;;1.71;93.10;98482.91;5051123;28;20974;-75
2020/12/12 04:47:28;;;;;;;39.97;26.03;;;;;;;1.68;93.43;98474.66;5050783;28;20439;-75
2020/12/12 04:49:54;;;;;;;35.57;25.57;;;;;;;1.67;93.72;98476.53;5050571;28;20506;-75
2020/12/12 04:52:24;;;;;;;35.73;24.97;;;;;;;1.64;93.68;98469.06;5050593;28;20178;-75
2020/12/12 04:54:50;;;;;;;36.67;25.77;;;;;;;1.69;93.47;98481.63;5051032;28;20246;-75
2020/12/12 04:57:16;;;;;;;39.80;26.23;;;;;;;1.64;93.61;98479.84;5050855;28;20509;-75
2020/12/12 04:59:42;;;;;;;37.10;26.37;;;;;;;1.63;93.87;98482.84;5049726;28;20596;-75
2020/12/12 05:02:13;;;;;;;42.00;26.53;;;;;;;1.61;94.00;98480.44;5050967;28;20171;-76
2020/12/12 05:04:41;;;;;;;44.57;26.90;;;;;;;1.53;94.73;98478.44;5049515;28;20497;-75
2020/12/12 05:07:08;;;;;;;37.60;26.77;;;;;;;1.54;94.60;98477.34;5051008;28;20422;-75
2020/12/12 05:09:33;;;;;;;45.97;28.43;;;;;;;1.47;94.47;98474.28;5050403;28;20560;-75
2020/12/12 05:11:59;;;;;;;48.40;28.87;;;;;;;1.47;94.70;98475.06;5051010;28;20521;-75
2020/12/12 05:14:24;;;;;;;53.47;29.53;;;;;;;1.47;95.03;98467.00;5050634;28;20175;-75
2020/12/12 05:16:53;;;;;;;46.57;30.13;;;;;;;1.53;94.71;98473.06;5048968;28;20309;-75
2020/12/12 05:19:18;;;;;;;48.57;28.80;;;;;;;1.52;94.80;98468.00;5050637;28;20208;-75
2020/12/12 05:21:52;;;;;;;56.57;30.27;;;;;;;1.50;94.77;98470.97;5050610;28;20833;-75
2020/12/12 05:24:18;;;;;;;42.03;27.43;;;;;;;1.52;94.80;98470.69;5050485;28;20189;-75
2020/12/12 05:26:44;;;;;;;46.77;29.27;;;;;;;1.48;94.77;98473.97;5050346;28;20491;-75
2020/12/12 05:29:13;;;;;;;42.70;28.90;;;;;;;1.47;95.09;98476.97;5050460;28;20199;-75
2020/12/12 05:31:39;;;;;;;48.67;28.80;;;;;;;1.49;95.03;98482.84;5049153;28;20513;-75
2020/12/12 05:34:13;;;;;;;49.87;29.50;;;;;;;1.48;95.11;98479.34;5050773;28;20531;-75
2020/12/12 05:36:39;;;;;;;54.63;30.03;;;;;;;1.45;95.13;98479.97;5050037;28;20250;-76
2020/12/12 05:39:06;;;;;;;54.50;32.47;;;;;;;1.45;95.21;98477.28;5050391;28;20923;-75
2020/12/12 05:41:33;;;;;;;53.40;30.87;;;;;;;1.41;95.27;98480.84;5050323;28;20418;-75
2020/12/12 05:43:58;;;;;;;55.27;31.00;;;;;;;1.45;95.37;98482.66;5050460;28;20207;-75
2020/12/12 05:46:24;;;;;;;52.63;31.10;;;;;;;1.42;95.45;98480.53;5050113;28;20430;-75
2020/12/12 05:48:53;;;;;;;50.43;30.33;;;;;;;1.46;95.28;98481.56;5050305;28;20207;-75
2020/12/12 05:51:20;;;;;;;47.83;29.47;;;;;;;1.55;95.24;98492.41;5050407;28;20225;-75
2020/12/12 05:53:47;;;;;;;44.30;28.50;;;;;;;1.61;95.27;98485.03;5050257;28;20413;-75
2020/12/12 05:56:13;;;;;;;45.47;28.60;;;;;;;1.57;95.04;98490.19;5050179;28;20477;-75
2020/12/12 05:58:40;;;;;;;53.37;29.40;;;;;;;1.61;94.94;98493.91;5050125;28;20420;-76
2020/12/12 06:01:14;;;;;;;44.13;28.77;;;;;;;1.64;94.98;98485.22;5050238;28;20441;-75
2020/12/12 06:04:02;;;;;;;43.03;28.10;;;;;;;1.77;94.64;98489.00;5054435;28;20413;-75
2020/12/12 06:06:27;;;;;;;45.47;28.33;;;;;;;1.71;94.65;98488.28;5054119;28;20445;-75
2020/12/12 06:09:00;;;;;;;44.30;27.73;;;;;;;1.68;94.63;98494.28;5054093;28;20925;-75
2020/12/12 06:11:28;;;;;;;41.87;27.87;;;;;;;1.82;94.45;98496.16;5054249;28;20635;-76
2020/12/12 06:13:58;;;;;;;37.93;27.63;;;;;;;1.91;94.30;98500.53;5053622;28;20508;-76
2020/12/12 06:16:26;;;;;;;36.33;26.80;;;;;;;2.10;94.17;98503.09;5053412;28;20183;-75
2020/12/12 06:18:59;;;;;;;69.77;37.77;;;;;;;2.15;93.81;98500.25;5053472;28;20580;-75
2020/12/12 06:21:25;;;;;;;104.30;47.43;;;;;;;2.12;93.38;98503.56;5053663;28;20171;-75
2020/12/12 06:23:50;;;;;;;43.93;28.90;;;;;;;2.03;93.42;98500.03;5054084;28;20172;-75
2020/12/12 06:26:22;;;;;;;39.27;27.80;;;;;;;1.89;93.58;98496.56;5054107;28;20622;-75
2020/12/12 06:28:48;;;;;;;43.17;27.37;;;;;;;1.92;93.65;98501.34;5053704;28;20214;-75
2020/12/12 06:31:14;;;;;;;38.97;26.43;;;;;;;1.83;93.89;98495.84;5053768;28;20233;-75
2020/12/12 06:33:51;;;;;;;39.23;25.60;;;;;;;1.88;93.82;98494.94;5053842;28;20190;-75
2020/12/12 06:36:27;;;;;;;39.13;27.27;;;;;;;2.06;93.72;98494.81;5053452;28;20265;-76
2020/12/12 06:39:14;;;;;;;33.83;25.37;;;;;;;1.92;93.46;98507.53;5053541;28;20500;-75
2020/12/12 06:41:40;;;;;;;41.87;27.67;;;;;;;1.82;93.70;98506.94;5053375;28;20245;-75
2020/12/12 06:44:05;;;;;;;38.57;26.93;;;;;;;1.94;93.70;98512.59;5053407;28;20622;-75
2020/12/12 06:46:51;;;;;;;37.50;26.97;;;;;;;1.92;93.58;98514.81;5053434;28;20278;-75
2020/12/12 06:49:16;;;;;;;31.47;25.10;;;;;;;2.08;93.29;98514.16;5053281;28;20195;-75
2020/12/12 06:51:41;;;;;;;34.40;25.10;;;;;;;2.03;93.30;98516.19;5053311;28;20533;-75
2020/12/12 06:54:08;;;;;;;27.43;23.20;;;;;;;2.20;93.10;98520.94;5053761;28;20207;-75
2020/12/12 06:56:33;;;;;;;25.40;22.33;;;;;;;2.20;92.51;98523.63;5053021;28;20207;-75
2020/12/12 06:59:37;;;;;;;27.60;22.13;;;;;;;2.20;92.38;98521.72;5051795;28;20214;-75
2020/12/12 07:02:07;;;;;;;31.67;23.37;;;;;;;2.10;92.30;98527.31;5053108;28;20217;-75
2020/12/12 07:04:37;;;;;;;29.87;24.03;;;;;;;2.08;92.53;98534.91;5053077;28;20203;-76
2020/12/12 07:07:06;;;;;;;26.87;23.63;;;;;;;2.05;92.46;98540.91;5052994;28;20171;-76
2020/12/12 07:09:32;;;;;;;27.97;23.43;;;;;;;2.11;92.32;98536.19;5052847;28;20202;-76
2020/12/12 07:11:57;;;;;;;35.37;24.60;;;;;;;2.02;92.93;98534.22;5052716;28;20187;-75
2020/12/12 07:14:24;;;;;;;29.77;24.27;;;;;;;2.12;92.48;98538.59;5052151;28;20183;-75
2020/12/12 07:16:54;;;;;;;26.23;23.43;;;;;;;2.29;92.19;98541.44;5052695;28;20175;-76
2020/12/12 07:19:40;;;;;;;26.00;21.80;;;;;;;2.32;91.78;98548.94;5053029;28;20182;-75
2020/12/12 07:22:10;;;;;;;29.07;22.57;;;;;;;2.22;91.84;98543.75;5052672;28;20634;-75
2020/12/12 07:24:36;;;;;;;30.90;23.87;;;;;;;1.81;92.55;98553.78;5051434;28;20179;-74
2020/12/12 07:27:04;;;;;;;41.93;27.43;;;;;;;1.46;94.10;98551.50;5052282;28;20195;-75
2020/12/12 07:29:30;;;;;;;46.60;28.30;;;;;;;1.40;94.40;98559.97;5052581;28;20214;-75
2020/12/12 07:31:56;;;;;;;45.47;28.10;;;;;;;1.37;94.85;98563.25;5051107;28;20430;-75
2020/12/12 07:34:23;;;;;;;44.27;28.17;;;;;;;1.47;95.36;98563.06;5052494;28;20471;-75
2020/12/12 07:37:04;;;;;;;45.27;28.30;;;;;;;1.43;94.95;98570.13;5052238;28;20167;-75
2020/12/12 07:39:34;;;;;;;43.87;28.10;;;;;;;1.46;95.01;98575.72;5052584;28;20405;-76
2020/12/12 07:42:01;;;;;;;40.60;27.97;;;;;;;1.43;95.20;98581.69;5052265;28;20927;-75
2020/12/12 07:44:30;;;;;;;49.23;30.37;;;;;;;1.69;94.61;98579.31;5052170;28;20418;-75
2020/12/12 07:47:07;;;;;;;44.07;29.47;;;;;;;1.96;94.36;98583.09;5050432;28;20430;-75
2020/12/12 07:49:35;;;;;;;44.23;28.87;;;;;;;2.16;94.15;98588.06;5052342;28;20233;-76
2020/12/12 07:52:10;;;;;;;31.60;26.60;;;;;;;2.14;93.58;98584.88;5050548;28;20441;-74
2020/12/12 07:54:42;;;;;;;37.17;26.10;;;;;;;1.71;93.48;98581.69;5052012;28;20202;-74
2020/12/12 07:57:10;;;;;;;38.60;27.83;;;;;;;1.55;94.44;98599.25;5050593;28;20343;-74
2020/12/12 07:59:35;;;;;;;47.67;27.73;;;;;;;1.58;94.17;98596.75;5052008;28;20782;-74
2020/12/12 08:02:05;;;;;;;36.37;25.57;;;;;;;1.64;94.17;98600.16;5051689;28;20509;-75
2020/12/12 08:04:32;;;;;;;40.77;28.87;;;;;;;1.93;93.95;98599.88;5051817;28;20179;-74
2020/12/12 08:06:57;;;;;;;35.37;26.17;;;;;;;2.04;93.51;98607.44;5051855;28;20450;-74
2020/12/12 08:09:24;;;;;;;40.80;26.97;;;;;;;2.02;93.37;98600.75;5051678;28;20503;-77
2020/12/12 08:12:08;;;;;;;35.20;25.57;;;;;;;2.08;93.38;98611.13;5051718;28;20696;-74
2020/12/12 08:14:43;;;;;;;36.93;25.27;;;;;;;2.04;93.30;98617.41;5051633;28;20782;-74
2020/12/12 08:17:10;;;;;;;38.20;27.87;;;;;;;1.95;93.24;98614.63;5050221;28;20218;-74
2020/12/12 08:19:45;;;;;;;43.50;30.23;;;;;;;1.90;93.43;98622.81;5051675;28;20422;-76
2020/12/12 08:22:15;;;;;;;43.47;27.70;;;;;;;1.84;93.81;98632.06;5051588;28;20459;-73
2020/12/12 08:24:42;;;;;;;39.50;28.17;;;;;;;1.80;93.85;98633.75;5049997;28;20511;-73
2020/12/12 08:27:28;;;;;;;39.20;27.73;;;;;;;1.89;93.97;98639.25;5050771;28;20482;-73
2020/12/12 08:29:58;;;;;;;40.37;27.87;;;;;;;1.79;94.15;98641.03;5051572;28;20466;-73
2020/12/12 08:32:38;;;;;;;40.37;29.00;;;;;;;1.72;94.40;98643.31;5051310;28;20848;-73
2020/12/12 08:35:22;;;;;;;51.43;30.87;;;;;;;1.64;95.04;98645.91;5052326;28;20413;-73
2020/12/12 08:37:55;;;;;;;54.73;31.33;;;;;;;1.73;95.31;98649.50;5059852;28;20422;-73
2020/12/12 08:40:22;;;;;;;46.63;30.07;;;;;;;1.77;95.05;98651.31;5052272;28;20402;-73
2020/12/12 08:43:01;;;;;;;41.93;27.60;;;;;;;2.01;95.06;98655.69;5051876;28;20445;-73
2020/12/12 08:45:28;;;;;;;37.03;26.20;;;;;;;2.07;94.53;98649.13;5051415;28;20398;-73
2020/12/12 08:48:20;;;;;;;34.73;26.73;;;;;;;2.05;94.67;98659.41;5050888;28;20599;-75
2020/12/12 08:50:56;;;;;;;37.13;27.10;;;;;;;2.07;94.57;98660.69;5047886;28;20225;-75
2020/12/12 08:53:22;;;;;;;46.43;27.40;;;;;;;2.11;94.48;98654.72;5031188;28;20460;-75
2020/12/12 08:56:20;;;;;;;40.07;26.53;;;;;;;2.29;94.70;98651.91;5031493;28;20423;-76
2020/12/12 08:58:48;;;;;;;36.80;25.37;;;;;;;2.51;94.06;98655.78;5020046;28;20196;-76
2020/12/12 09:01:21;;;;;;;29.27;24.40;;;;;;;2.61;94.07;98653.66;5051041;28;20428;-73
2020/12/12 09:03:53;;;;;;;27.53;24.50;;;;;;;2.48;93.32;98657.19;5049710;28;20228;-74
2020/12/12 09:06:19;;;;;;;33.27;26.90;;;;;;;2.33;93.67;98662.91;5050835;28;20426;-73
2020/12/12 09:08:44;;;;;;;41.93;27.30;;;;;;;2.27;94.03;98666.78;5049345;28;20198;-73
2020/12/12 09:11:18;;;;;;;45.40;28.30;;;;;;;2.26;94.16;98671.38;5050740;28;20280;-73
2020/12/12 09:13:44;;;;;;;43.13;29.17;;;;;;;2.29;94.40;98668.06;5050853;28;20228;-73
2020/12/12 09:16:10;;;;;;;47.87;30.13;;;;;;;2.35;94.36;98680.34;5050710;28;20819;-73
2020/12/12 09:18:46;;;;;;;40.03;28.97;;;;;;;2.39;94.14;98686.72;5050744;28;20202;-73
2020/12/12 09:21:12;;;;;;;40.20;27.77;;;;;;;2.46;94.18;98680.13;5050698;28;20772;-74
2020/12/12 09:23:38;;;;;;;40.10;28.00;;;;;;;2.52;93.99;98684.31;5050679;28;20487;-73
2020/12/12 09:26:04;;;;;;;38.20;27.27;;;;;;;2.59;94.26;98690.09;5050370;28;21140;-73
2020/12/12 09:28:30;;;;;;;41.80;29.07;;;;;;;2.66;94.08;98695.88;5049172;28;20195;-73
2020/12/12 09:30:55;;;;;;;38.03;28.03;;;;;;;2.73;94.02;98698.94;5050867;28;20646;-73
2020/12/12 09:33:21;;;;;;;35.63;26.83;;;;;;;2.83;94.01;98701.44;5050655;28;20163;-74
2020/12/12 09:35:48;;;;;;;43.50;30.00;;;;;;;2.86;93.45;98705.44;5050664;28;20166;-75
2020/12/12 09:38:13;;;;;;;38.80;29.80;;;;;;;2.95;93.41;98706.31;5053911;28;20254;-73
2020/12/12 09:40:38;;;;;;;40.83;28.07;;;;;;;3.02;93.61;98712.06;5054434;28;20581;-73
2020/12/12 09:43:03;;;;;;;36.00;27.80;;;;;;;3.12;93.13;98714.53;5054604;28;20171;-73
2020/12/12 09:45:29;;;;;;;38.33;27.63;;;;;;;3.26;93.00;98718.00;5054530;28;20171;-73
2020/12/12 09:47:54;;;;;;;29.93;26.60;;;;;;;3.43;92.66;98722.72;5054157;28;20218;-74
2020/12/12 09:50:19;;;;;;;31.43;24.80;;;;;;;3.66;92.45;98722.75;5054394;28;20199;-74
2020/12/12 09:52:45;;;;;;;37.77;33.23;;;;;;;3.69;91.31;98722.13;5054612;28;20705;-74
2020/12/12 09:55:10;;;;;;;30.87;27.63;;;;;;;3.92;91.19;98723.69;5054280;28;20528;-73
2020/12/12 09:57:35;;;;;;;26.57;23.87;;;;;;;4.01;90.97;98734.53;5053989;28;20233;-74
2020/12/12 10:00:01;;;;;;;25.23;22.73;;;;;;;4.08;89.40;98721.38;5054262;28;20551;-74
2020/12/12 10:02:26;;;;;;;24.17;21.70;;;;;;;4.25;88.36;98729.56;5054365;28;20619;-74
2020/12/12 10:04:52;;;;;;;22.43;20.07;;;;;;;4.32;87.14;98727.19;5054175;28;20258;-74
2020/12/12 10:07:17;;;;;;;21.73;19.73;;;;;;;4.34;86.19;98729.59;5053627;28;20167;-74
2020/12/12 10:09:43;;;;;;;22.43;20.37;;;;;;;4.42;85.98;98732.34;5053877;28;20425;-74
2020/12/12 10:12:08;;;;;;;24.80;18.50;;;;;;;4.52;84.64;98730.47;5053902;28;20168;-74
2020/12/12 10:14:34;;;;;;;19.57;17.73;;;;;;;4.49;84.14;98737.28;5053944;28;20185;-74
2020/12/12 10:16:59;;;;;;;22.17;20.00;;;;;;;4.50;84.37;98729.97;5053625;28;20174;-74
2020/12/12 10:19:24;;;;;;;20.83;18.90;;;;;;;4.52;84.28;98735.88;5053793;28;20526;-74
2020/12/12 10:21:50;;;;;;;20.20;18.20;;;;;;;4.59;83.75;98736.19;5053795;28;20570;-74
2020/12/12 10:24:15;;;;;;;20.30;18.47;;;;;;;4.54;84.16;98739.84;5053720;28;20179;-74
2020/12/12 10:26:40;;;;;;;19.53;17.63;;;;;;;4.53;83.84;98738.25;5053500;28;20251;-74
2020/12/12 10:29:06;;;;;;;19.63;17.70;;;;;;;4.53;83.48;98734.75;5053438;28;20290;-74
2020/12/12 10:31:31;;;;;;;20.30;18.43;;;;;;;4.55;83.94;98735.25;5053555;28;20262;-74
2020/12/12 10:33:56;;;;;;;21.07;19.07;;;;;;;4.55;83.46;98749.56;5053624;28;20217;-74
2020/12/12 10:36:22;;;;;;;21.47;19.30;;;;;;;4.59;83.87;98750.50;5052954;28;20270;-74
2020/12/12 10:38:47;;;;;;;21.23;19.13;;;;;;;4.67;83.46;98749.75;5053448;28;20279;-74
2020/12/12 10:41:12;;;;;;;20.27;18.50;;;;;;;4.75;83.22;98759.00;5053295;28;20179;-74
2020/12/12 10:43:39;;;;;;;17.90;16.30;;;;;;;4.68;83.19;98755.97;5053411;28;20176;-74
2020/12/12 10:46:04;;;;;;;18.73;17.03;;;;;;;4.60;82.59;98752.09;5053291;28;20175;-74
2020/12/12 10:48:30;;;;;;;19.20;17.60;;;;;;;4.71;83.01;98756.13;5051993;28;20203;-74
2020/12/12 10:50:55;;;;;;;19.03;17.30;;;;;;;4.77;83.18;98757.59;5053072;28;20693;-74
2020/12/12 10:53:21;;;;;;;18.60;16.97;;;;;;;4.83;82.69;98760.94;5053324;28;20187;-74
2020/12/12 10:55:46;;;;;;;19.07;17.40;;;;;;;4.77;83.02;98759.47;5053088;28;20506;-74
2020/12/12 10:58:12;;;;;;;17.90;16.40;;;;;;;4.76;82.62;98766.78;5052821;28;20171;-74
2020/12/12 11:00:44;;;;;;;18.03;16.50;;;;;;;4.71;82.61;98758.03;5053003;28;20611;-74
2020/12/12 11:03:09;;;;;;;17.00;15.57;;;;;;;4.84;82.57;98756.31;5053080;28;20310;-74
2020/12/12 11:05:35;;;;;;;18.93;17.43;;;;;;;4.83;82.57;98768.25;5052730;28;20243;-74
2020/12/12 11:08:01;;;;;;;16.80;15.40;;;;;;;4.80;82.92;98755.38;5051357;28;20186;-74
2020/12/12 11:10:26;;;;;;;17.93;16.43;;;;;;;4.90;83.00;98758.56;5052935;28;20175;-74
2020/12/12 11:12:51;;;;;;;18.13;16.63;;;;;;;4.95;82.75;98763.03;5053002;28;20179;-74
2020/12/12 11:15:17;;;;;;;19.43;17.53;;;;;;;4.94;82.25;98764.94;5052690;28;20179;-75
2020/12/12 11:17:43;;;;;;;23.43;20.13;;;;;;;4.92;81.92;98769.06;5052334;28;20167;-74
2020/12/12 11:20:09;;;;;;;30.30;22.73;;;;;;;5.04;82.51;98769.25;5052295;28;20228;-74
2020/12/12 11:22:35;;;;;;;21.20;19.10;;;;;;;5.06;82.21;98759.72;5052776;28;20187;-74
2020/12/12 11:25:00;;;;;;;28.80;22.10;;;;;;;5.03;81.89;98763.03;5052449;28;20175;-74
2020/12/12 11:27:26;;;;;;;34.77;24.63;;;;;;;4.97;81.90;98768.94;5052436;28;20190;-74